fecha-hora | temperatura | viento dirección-velocidad-rachas | humedad | presión

  • 03-04-2020 22:00:00 | 4.80°C | Sur-20.00 km/h - 26.00 km/h | 56.00% | 0.00 hPa
  • 03-04-2020 21:00:00 | 5.90°C | Sur-14.00 km/h - 20.00 km/h | 53.00% | 0.00 hPa
  • 03-04-2020 20:00:00 | 7.50°C | Sur-9.00 km/h - 16.00 km/h | 51.00% | 0.00 hPa
  • 03-04-2020 19:00:00 | 8.70°C | Norte-3.00 km/h - 15.00 km/h | 61.00% | 0.00 hPa
  • 03-04-2020 18:00:00 | 8.20°C | Oeste-7.00 km/h - 19.00 km/h | 55.00% | 0.00 hPa
  • 03-04-2020 17:00:00 | 10.40°C | Sur-4.00 km/h - 23.00 km/h | 47.00% | 0.00 hPa
  • 03-04-2020 16:00:00 | 9.90°C | Norte-5.00 km/h - 14.00 km/h | 51.00% | 0.00 hPa
  • 03-04-2020 15:00:00 | 9.30°C | Norte-3.00 km/h - 12.00 km/h | 48.00% | 0.00 hPa
  • 03-04-2020 14:00:00 | 7.60°C | Noroeste-6.00 km/h - 12.00 km/h | 51.00% | 0.00 hPa
  • 03-04-2020 13:00:00 | 7.30°C | Noroeste-6.00 km/h - 12.00 km/h | 60.00% | 0.00 hPa
  • 03-04-2020 12:00:00 | 6.90°C | Norte-6.00 km/h - 11.00 km/h | 63.00% | 0.00 hPa
  • 03-04-2020 11:00:00 | 6.00°C | Este-3.00 km/h - 6.00 km/h | 79.00% | 0.00 hPa
  • 03-04-2020 10:00:00 | 3.60°C | Calma-0.00 km/h - 6.00 km/h | 85.00% | 0.00 hPa
  • 03-04-2020 09:00:00 | 0.90°C | Sudoeste-6.00 km/h - 13.00 km/h | 88.00% | 0.00 hPa
  • 03-04-2020 08:00:00 | 0.40°C | Sudoeste-10.00 km/h - 17.00 km/h | 90.00% | 0.00 hPa
  • 03-04-2020 07:00:00 | 0.40°C | Sur-10.00 km/h - 17.00 km/h | 91.00% | 0.00 hPa
  • 03-04-2020 06:00:00 | -0.40°C | Sur-6.00 km/h - 14.00 km/h | 91.00% | 0.00 hPa
  • 03-04-2020 05:00:00 | 0.00°C | Sur-8.00 km/h - 18.00 km/h | 91.00% | 0.00 hPa
  • 03-04-2020 04:00:00 | -0.30°C | Sudeste-4.00 km/h - 6.00 km/h | 91.00% | 0.00 hPa
  • 03-04-2020 03:00:00 | -0.40°C | Sudeste-3.00 km/h - 6.00 km/h | 91.00% | 0.00 hPa
  • 03-04-2020 02:00:00 | -0.40°C | Sudeste-3.00 km/h - 12.00 km/h | 91.00% | 0.00 hPa
  • 03-04-2020 01:00:00 | 0.00°C | Noroeste-4.00 km/h - 16.00 km/h | 91.00% | 0.00 hPa
  • 03-04-2020 00:00:00 | 0.40°C | Noroeste-6.00 km/h - 17.00 km/h | 91.00% | 0.00 hPa
  • 02-04-2020 23:00:00 | 0.50°C | Noroeste-10.00 km/h - 22.00 km/h | 91.00% | 0.00 hPa
    • diseño web asturias Información sobre el estado de las mareas, altura de la marejada, temperatura del agua y otros datos de Gijón en Asturias.

      Surf Gijón